Pittsburg, NH

2:18 PM EDT on July 30, 2015 (GMT -0400)
Tranquility Base | | Change Station
CLOSE
Current Station
Personal Weather Station
Location: Pittsburg, NH
Elevation: 1581 ft
Nearby Weather Stations

Elev 1581 ft 45.06 °N, 71.31 °W | Updated 30 seconds ago

Overcast
Overcast
79.0 °F
Feels Like 82 °F
N
0.0
Wind Variable Wind from SE
Gusts 3.0 mph

Today
High -- | Low -- °F
--% Chance of Precip.
Yesterday
High -- | Low -- °F
Precip. -- in
5:27 AM 8:14 PM
Waxing Gibbous, 99% visible
Pressure 29.78 in
Visibility 10.0 miles
Clouds Clear
Heat Index 82 °F
Dew Point 71 °F
Humidity 77%
Rainfall 0.00 in
Snow Depth Not available.
UV 0.0 out of 12
Pollen 5.20 out of 12
Air Quality Not available.
Flu Activity Not available.
METAR KBML 301752Z AUTO VRB03KT 10SM CLR 28/17 A2979 RMK AO2 SLP082 T02830172 10311 20189 56015

More Conditions Fewer Conditions

Pressure 29.78 in
Visibility 10.0 miles
Clouds Clear
Heat Index 82 °F
Dew Point 71 °F
Humidity 77%
Rainfall 0.00 in
Snow Depth Not available.
UV 0.0 out of 12
Pollen 5.20 out of 12
Air Quality Not available.
Flu Activity Not available.
METAR KBML 301752Z AUTO VRB03KT 10SM CLR 28/17 A2979 RMK AO2 SLP082 T02830172 10311 20189 56015

More Conditions Fewer Conditions

10-Day Weather Forecast

×

Almanac

Astronomy

Jul. 30, 2015 Rise Set
Actual Time
Civil Twilight
Nautical Twilight
Astronomical Twilight
Moon
Length of Visible Light
Length of Day
Tomorrow will be .
, % of the Moon is Illuminated

Today's Extremes

State Highs State Lows

Community

WunderPhotos

Upload Photos

1,842,449 photos uploaded!

WunderBlogs® & News

Nearby

Air Quality

  Air Quality AQ Index Pollutant
Not available.

Snow Depth

Station Depth Elevation

Earthquake Activity

City Distance Mag. Time & Date
Minimum magnitude displayed is 2.5.

Coastal Water Temperatures

Place Temperature

Stations

Nearby Weather Stations

Station Location Temp. Windchill Dew Point Humidity Wind Precip. Elev Updated Type